sensor_id;sensor_type;location;lat;lon;timestamp;P1;durP1;ratioP1;P2;durP2;ratioP2
44536;SDS011;30245;51.966;6.292;2023-07-28T00:00:02;2.63;;;2.15;;
44536;SDS011;30245;51.966;6.292;2023-07-28T00:02:29;2.95;;;2.75;;
44536;SDS011;30245;51.966;6.292;2023-07-28T00:04:54;2.50;;;2.30;;
44536;SDS011;30245;51.966;6.292;2023-07-28T00:07:20;7.20;;;2.33;;
44536;SDS011;30245;51.966;6.292;2023-07-28T00:09:46;3.40;;;3.20;;
44536;SDS011;30245;51.966;6.292;2023-07-28T00:12:11;3.00;;;2.80;;
44536;SDS011;30245;51.966;6.292;2023-07-28T00:14:37;3.78;;;3.33;;
44536;SDS011;30245;51.966;6.292;2023-07-28T00:17:02;4.03;;;3.03;;
44536;SDS011;30245;51.966;6.292;2023-07-28T00:19:28;3.22;;;3.00;;
44536;SDS011;30245;51.966;6.292;2023-07-28T00:21:54;2.90;;;2.70;;
44536;SDS011;30245;51.966;6.292;2023-07-28T00:24:21;2.65;;;2.45;;
44536;SDS011;30245;51.966;6.292;2023-07-28T00:26:46;2.97;;;2.78;;
44536;SDS011;30245;51.966;6.292;2023-07-28T00:29:12;2.92;;;2.53;;
44536;SDS011;30245;51.966;6.292;2023-07-28T00:31:38;3.40;;;3.08;;
44536;SDS011;30245;51.966;6.292;2023-07-28T00:34:03;3.10;;;2.90;;
44536;SDS011;30245;51.966;6.292;2023-07-28T00:36:29;3.33;;;2.80;;
44536;SDS011;30245;51.966;6.292;2023-07-28T00:38:55;2.38;;;2.17;;
44536;SDS011;30245;51.966;6.292;2023-07-28T00:41:21;2.47;;;2.28;;
44536;SDS011;30245;51.966;6.292;2023-07-28T00:43:47;2.45;;;2.25;;
44536;SDS011;30245;51.966;6.292;2023-07-28T00:46:12;3.63;;;2.90;;
44536;SDS011;30245;51.966;6.292;2023-07-28T00:48:39;2.58;;;2.35;;
44536;SDS011;30245;51.966;6.292;2023-07-28T00:51:07;3.45;;;2.75;;
44536;SDS011;30245;51.966;6.292;2023-07-28T00:53:32;3.53;;;3.25;;
44536;SDS011;30245;51.966;6.292;2023-07-28T00:55:58;2.85;;;2.65;;
44536;SDS011;30245;51.966;6.292;2023-07-28T00:58:24;3.85;;;3.55;;
44536;SDS011;30245;51.966;6.292;2023-07-28T01:00:49;3.03;;;2.80;;
44536;SDS011;30245;51.966;6.292;2023-07-28T01:03:17;5.20;;;3.50;;
44536;SDS011;30245;51.966;6.292;2023-07-28T01:08:21;3.60;;;2.95;;
44536;SDS011;30245;51.966;6.292;2023-07-28T01:11:07;4.50;;;4.10;;
44536;SDS011;30245;51.966;6.292;2023-07-28T01:13:32;4.68;;;4.28;;
44536;SDS011;30245;51.966;6.292;2023-07-28T01:15:58;5.82;;;5.43;;
44536;SDS011;30245;51.966;6.292;2023-07-28T01:18:25;4.45;;;4.15;;
44536;SDS011;30245;51.966;6.292;2023-07-28T01:20:51;5.07;;;4.57;;
44536;SDS011;30245;51.966;6.292;2023-07-28T01:23:25;5.28;;;4.85;;
44536;SDS011;30245;51.966;6.292;2023-07-28T01:28:35;4.88;;;4.53;;
44536;SDS011;30245;51.966;6.292;2023-07-28T01:31:02;3.85;;;3.55;;
44536;SDS011;30245;51.966;6.292;2023-07-28T01:33:29;3.60;;;3.27;;
44536;SDS011;30245;51.966;6.292;2023-07-28T01:35:55;4.25;;;3.95;;
44536;SDS011;30245;51.966;6.292;2023-07-28T01:38:21;4.00;;;3.70;;
44536;SDS011;30245;51.966;6.292;2023-07-28T01:40:47;5.90;;;5.55;;
44536;SDS011;30245;51.966;6.292;2023-07-28T01:43:12;5.32;;;4.93;;
44536;SDS011;30245;51.966;6.292;2023-07-28T01:45:38;5.32;;;4.55;;
44536;SDS011;30245;51.966;6.292;2023-07-28T01:48:04;5.32;;;4.85;;
44536;SDS011;30245;51.966;6.292;2023-07-28T01:50:30;4.40;;;3.90;;
44536;SDS011;30245;51.966;6.292;2023-07-28T01:52:56;5.80;;;4.57;;
44536;SDS011;30245;51.966;6.292;2023-07-28T01:55:21;5.53;;;5.15;;
44536;SDS011;30245;51.966;6.292;2023-07-28T01:58:00;5.80;;;5.10;;
44536;SDS011;30245;51.966;6.292;2023-07-28T02:00:27;4.65;;;4.25;;
44536;SDS011;30245;51.966;6.292;2023-07-28T02:02:53;5.03;;;4.30;;
44536;SDS011;30245;51.966;6.292;2023-07-28T02:05:20;5.05;;;4.65;;
44536;SDS011;30245;51.966;6.292;2023-07-28T02:07:46;3.97;;;3.25;;
44536;SDS011;30245;51.966;6.292;2023-07-28T02:10:11;5.50;;;5.10;;
44536;SDS011;30245;51.966;6.292;2023-07-28T02:12:38;5.30;;;4.90;;
44536;SDS011;30245;51.966;6.292;2023-07-28T02:15:05;6.80;;;6.28;;
44536;SDS011;30245;51.966;6.292;2023-07-28T02:17:31;4.23;;;3.93;;
44536;SDS011;30245;51.966;6.292;2023-07-28T02:19:57;5.00;;;4.60;;
44536;SDS011;30245;51.966;6.292;2023-07-28T02:22:22;5.88;;;5.47;;
44536;SDS011;30245;51.966;6.292;2023-07-28T02:24:48;4.32;;;3.92;;
44536;SDS011;30245;51.966;6.292;2023-07-28T02:27:13;5.05;;;4.65;;
44536;SDS011;30245;51.966;6.292;2023-07-28T02:29:39;6.32;;;5.72;;
44536;SDS011;30245;51.966;6.292;2023-07-28T02:32:05;4.82;;;4.43;;
44536;SDS011;30245;51.966;6.292;2023-07-28T02:34:31;5.10;;;4.70;;
44536;SDS011;30245;51.966;6.292;2023-07-28T02:36:57;5.35;;;3.83;;
44536;SDS011;30245;51.966;6.292;2023-07-28T02:39:22;6.07;;;5.03;;
44536;SDS011;30245;51.966;6.292;2023-07-28T02:41:48;4.15;;;3.85;;
44536;SDS011;30245;51.966;6.292;2023-07-28T02:44:13;5.45;;;4.97;;
44536;SDS011;30245;51.966;6.292;2023-07-28T02:46:39;6.28;;;4.80;;
44536;SDS011;30245;51.966;6.292;2023-07-28T02:49:05;7.55;;;6.85;;
44536;SDS011;30245;51.966;6.292;2023-07-28T02:51:30;4.85;;;4.38;;
44536;SDS011;30245;51.966;6.292;2023-07-28T02:53:56;6.03;;;5.45;;
44536;SDS011;30245;51.966;6.292;2023-07-28T02:56:21;4.88;;;4.32;;
44536;SDS011;30245;51.966;6.292;2023-07-28T02:58:48;4.60;;;4.20;;
44536;SDS011;30245;51.966;6.292;2023-07-28T03:01:14;6.85;;;5.75;;
44536;SDS011;30245;51.966;6.292;2023-07-28T03:03:39;6.13;;;5.15;;
44536;SDS011;30245;51.966;6.292;2023-07-28T03:06:05;5.80;;;5.20;;
44536;SDS011;30245;51.966;6.292;2023-07-28T03:08:31;5.00;;;4.60;;
44536;SDS011;30245;51.966;6.292;2023-07-28T03:10:57;5.93;;;5.43;;
44536;SDS011;30245;51.966;6.292;2023-07-28T03:13:23;5.97;;;5.47;;
44536;SDS011;30245;51.966;6.292;2023-07-28T03:15:49;5.70;;;5.20;;
44536;SDS011;30245;51.966;6.292;2023-07-28T03:18:14;10.27;;;5.07;;
44536;SDS011;30245;51.966;6.292;2023-07-28T03:20:40;6.28;;;5.68;;
44536;SDS011;30245;51.966;6.292;2023-07-28T03:23:06;6.00;;;5.47;;
44536;SDS011;30245;51.966;6.292;2023-07-28T03:25:32;4.97;;;4.60;;
44536;SDS011;30245;51.966;6.292;2023-07-28T03:27:58;5.97;;;4.97;;
44536;SDS011;30245;51.966;6.292;2023-07-28T03:30:23;4.80;;;4.32;;
44536;SDS011;30245;51.966;6.292;2023-07-28T03:32:49;8.60;;;5.45;;
44536;SDS011;30245;51.966;6.292;2023-07-28T03:35:14;6.65;;;5.72;;
44536;SDS011;30245;51.966;6.292;2023-07-28T03:37:40;6.60;;;5.90;;
44536;SDS011;30245;51.966;6.292;2023-07-28T03:40:05;8.02;;;7.22;;
44536;SDS011;30245;51.966;6.292;2023-07-28T03:42:31;8.15;;;6.32;;
44536;SDS011;30245;51.966;6.292;2023-07-28T03:44:57;9.88;;;7.10;;
44536;SDS011;30245;51.966;6.292;2023-07-28T03:47:23;8.52;;;6.78;;
44536;SDS011;30245;51.966;6.292;2023-07-28T03:49:49;8.15;;;6.05;;
44536;SDS011;30245;51.966;6.292;2023-07-28T03:52:14;7.53;;;5.55;;
44536;SDS011;30245;51.966;6.292;2023-07-28T03:54:40;8.38;;;7.05;;
44536;SDS011;30245;51.966;6.292;2023-07-28T03:57:05;13.90;;;8.48;;
44536;SDS011;30245;51.966;6.292;2023-07-28T03:59:31;10.40;;;7.82;;
44536;SDS011;30245;51.966;6.292;2023-07-28T04:01:57;9.05;;;6.82;;
44536;SDS011;30245;51.966;6.292;2023-07-28T04:04:23;9.75;;;6.35;;
44536;SDS011;30245;51.966;6.292;2023-07-28T04:06:49;10.85;;;6.88;;
44536;SDS011;30245;51.966;6.292;2023-07-28T04:09:20;11.15;;;7.32;;
44536;SDS011;30245;51.966;6.292;2023-07-28T04:11:46;9.65;;;7.78;;
44536;SDS011;30245;51.966;6.292;2023-07-28T04:14:12;8.32;;;6.15;;
44536;SDS011;30245;51.966;6.292;2023-07-28T04:16:39;9.20;;;6.95;;
44536;SDS011;30245;51.966;6.292;2023-07-28T04:19:04;9.05;;;6.82;;
44536;SDS011;30245;51.966;6.292;2023-07-28T04:21:30;9.23;;;7.57;;
44536;SDS011;30245;51.966;6.292;2023-07-28T04:23:56;11.27;;;7.70;;
44536;SDS011;30245;51.966;6.292;2023-07-28T04:26:22;8.07;;;7.20;;
44536;SDS011;30245;51.966;6.292;2023-07-28T04:28:49;9.15;;;7.22;;
44536;SDS011;30245;51.966;6.292;2023-07-28T04:31:14;10.05;;;6.03;;
44536;SDS011;30245;51.966;6.292;2023-07-28T04:33:40;9.75;;;6.05;;
44536;SDS011;30245;51.966;6.292;2023-07-28T04:36:06;7.78;;;6.60;;
44536;SDS011;30245;51.966;6.292;2023-07-28T04:38:32;9.02;;;6.10;;
44536;SDS011;30245;51.966;6.292;2023-07-28T04:40:57;7.38;;;6.65;;
44536;SDS011;30245;51.966;6.292;2023-07-28T04:43:23;10.20;;;6.93;;
44536;SDS011;30245;51.966;6.292;2023-07-28T04:45:49;11.63;;;7.40;;
44536;SDS011;30245;51.966;6.292;2023-07-28T04:48:14;8.90;;;7.30;;
44536;SDS011;30245;51.966;6.292;2023-07-28T04:50:40;9.55;;;6.03;;
44536;SDS011;30245;51.966;6.292;2023-07-28T04:53:05;9.80;;;7.00;;
44536;SDS011;30245;51.966;6.292;2023-07-28T04:55:31;12.77;;;7.78;;
44536;SDS011;30245;51.966;6.292;2023-07-28T04:57:56;11.00;;;7.35;;
44536;SDS011;30245;51.966;6.292;2023-07-28T05:00:22;7.82;;;6.65;;
44536;SDS011;30245;51.966;6.292;2023-07-28T05:02:48;11.38;;;7.35;;
44536;SDS011;30245;51.966;6.292;2023-07-28T05:05:14;9.18;;;7.53;;
44536;SDS011;30245;51.966;6.292;2023-07-28T05:07:40;12.18;;;6.80;;
44536;SDS011;30245;51.966;6.292;2023-07-28T05:10:05;11.00;;;7.65;;
44536;SDS011;30245;51.966;6.292;2023-07-28T05:12:31;11.68;;;7.13;;
44536;SDS011;30245;51.966;6.292;2023-07-28T05:14:57;7.85;;;5.50;;
44536;SDS011;30245;51.966;6.292;2023-07-28T05:17:22;8.48;;;6.90;;
44536;SDS011;30245;51.966;6.292;2023-07-28T05:19:49;8.05;;;6.57;;
44536;SDS011;30245;51.966;6.292;2023-07-28T05:22:15;9.47;;;7.07;;
44536;SDS011;30245;51.966;6.292;2023-07-28T05:24:41;11.48;;;6.32;;
44536;SDS011;30245;51.966;6.292;2023-07-28T05:27:07;13.65;;;8.13;;
44536;SDS011;30245;51.966;6.292;2023-07-28T05:29:32;12.60;;;7.75;;
44536;SDS011;30245;51.966;6.292;2023-07-28T05:31:58;12.07;;;7.03;;
44536;SDS011;30245;51.966;6.292;2023-07-28T05:34:27;10.82;;;7.00;;
44536;SDS011;30245;51.966;6.292;2023-07-28T05:36:53;9.07;;;6.95;;
44536;SDS011;30245;51.966;6.292;2023-07-28T05:39:18;10.82;;;7.63;;
44536;SDS011;30245;51.966;6.292;2023-07-28T05:41:44;12.93;;;7.68;;
44536;SDS011;30245;51.966;6.292;2023-07-28T05:44:10;11.13;;;7.72;;
44536;SDS011;30245;51.966;6.292;2023-07-28T05:46:35;11.77;;;7.10;;
44536;SDS011;30245;51.966;6.292;2023-07-28T05:49:01;11.43;;;7.82;;
44536;SDS011;30245;51.966;6.292;2023-07-28T05:51:27;15.68;;;9.00;;
44536;SDS011;30245;51.966;6.292;2023-07-28T05:53:52;14.50;;;10.15;;
44536;SDS011;30245;51.966;6.292;2023-07-28T05:56:19;15.00;;;9.93;;
44536;SDS011;30245;51.966;6.292;2023-07-28T05:58:47;13.93;;;8.57;;
44536;SDS011;30245;51.966;6.292;2023-07-28T06:01:13;17.85;;;8.90;;
44536;SDS011;30245;51.966;6.292;2023-07-28T06:03:39;16.60;;;9.93;;
44536;SDS011;30245;51.966;6.292;2023-07-28T06:06:05;18.33;;;11.18;;
44536;SDS011;30245;51.966;6.292;2023-07-28T06:08:30;16.85;;;11.23;;
44536;SDS011;30245;51.966;6.292;2023-07-28T06:10:56;17.10;;;10.80;;
44536;SDS011;30245;51.966;6.292;2023-07-28T06:13:22;16.73;;;12.20;;
44536;SDS011;30245;51.966;6.292;2023-07-28T06:15:47;18.27;;;11.25;;
44536;SDS011;30245;51.966;6.292;2023-07-28T06:18:13;18.15;;;9.35;;
44536;SDS011;30245;51.966;6.292;2023-07-28T06:20:45;20.88;;;12.43;;
44536;SDS011;30245;51.966;6.292;2023-07-28T06:23:10;15.80;;;9.70;;
44536;SDS011;30245;51.966;6.292;2023-07-28T06:25:36;17.17;;;9.57;;
44536;SDS011;30245;51.966;6.292;2023-07-28T06:28:07;13.45;;;9.25;;
44536;SDS011;30245;51.966;6.292;2023-07-28T06:30:33;15.70;;;10.20;;
44536;SDS011;30245;51.966;6.292;2023-07-28T06:32:58;15.50;;;8.90;;
44536;SDS011;30245;51.966;6.292;2023-07-28T06:35:24;14.45;;;9.70;;
44536;SDS011;30245;51.966;6.292;2023-07-28T06:37:49;13.95;;;9.88;;
44536;SDS011;30245;51.966;6.292;2023-07-28T06:40:15;16.75;;;9.70;;
44536;SDS011;30245;51.966;6.292;2023-07-28T06:42:41;12.45;;;7.85;;
44536;SDS011;30245;51.966;6.292;2023-07-28T06:45:06;13.98;;;8.73;;
44536;SDS011;30245;51.966;6.292;2023-07-28T06:47:32;14.27;;;8.95;;
44536;SDS011;30245;51.966;6.292;2023-07-28T06:49:58;14.93;;;9.15;;
44536;SDS011;30245;51.966;6.292;2023-07-28T06:52:23;13.75;;;8.90;;
44536;SDS011;30245;51.966;6.292;2023-07-28T06:54:49;13.23;;;9.32;;
44536;SDS011;30245;51.966;6.292;2023-07-28T06:57:15;13.52;;;9.25;;
44536;SDS011;30245;51.966;6.292;2023-07-28T06:59:41;14.32;;;9.98;;
44536;SDS011;30245;51.966;6.292;2023-07-28T07:02:07;15.95;;;9.13;;
44536;SDS011;30245;51.966;6.292;2023-07-28T07:04:34;13.25;;;9.55;;
44536;SDS011;30245;51.966;6.292;2023-07-28T07:06:59;13.73;;;9.45;;
44536;SDS011;30245;51.966;6.292;2023-07-28T07:09:25;12.02;;;8.88;;
44536;SDS011;30245;51.966;6.292;2023-07-28T07:11:51;14.73;;;10.38;;
44536;SDS011;30245;51.966;6.292;2023-07-28T07:14:17;18.08;;;9.82;;
44536;SDS011;30245;51.966;6.292;2023-07-28T07:16:44;14.93;;;8.70;;
44536;SDS011;30245;51.966;6.292;2023-07-28T07:19:09;12.73;;;7.22;;
44536;SDS011;30245;51.966;6.292;2023-07-28T07:21:35;15.18;;;9.75;;
44536;SDS011;30245;51.966;6.292;2023-07-28T07:24:02;9.90;;;8.02;;
44536;SDS011;30245;51.966;6.292;2023-07-28T07:26:28;13.32;;;8.32;;
44536;SDS011;30245;51.966;6.292;2023-07-28T07:28:55;8.00;;;7.05;;
44536;SDS011;30245;51.966;6.292;2023-07-28T07:31:21;8.65;;;6.13;;
44536;SDS011;30245;51.966;6.292;2023-07-28T07:33:47;9.00;;;7.53;;
44536;SDS011;30245;51.966;6.292;2023-07-28T07:36:13;14.70;;;9.77;;
44536;SDS011;30245;51.966;6.292;2023-07-28T07:38:39;12.02;;;8.95;;
44536;SDS011;30245;51.966;6.292;2023-07-28T07:41:06;9.15;;;8.07;;
44536;SDS011;30245;51.966;6.292;2023-07-28T07:43:33;12.13;;;9.18;;
44536;SDS011;30245;51.966;6.292;2023-07-28T07:45:58;13.13;;;9.90;;
44536;SDS011;30245;51.966;6.292;2023-07-28T07:48:24;10.80;;;7.85;;
44536;SDS011;30245;51.966;6.292;2023-07-28T07:50:50;14.52;;;8.18;;
44536;SDS011;30245;51.966;6.292;2023-07-28T07:53:16;14.00;;;8.40;;
44536;SDS011;30245;51.966;6.292;2023-07-28T07:55:42;9.20;;;8.02;;
44536;SDS011;30245;51.966;6.292;2023-07-28T07:58:08;10.77;;;8.52;;
44536;SDS011;30245;51.966;6.292;2023-07-28T08:00:36;8.95;;;8.05;;
44536;SDS011;30245;51.966;6.292;2023-07-28T08:03:03;9.32;;;7.25;;
44536;SDS011;30245;51.966;6.292;2023-07-28T08:05:30;11.90;;;8.88;;
44536;SDS011;30245;51.966;6.292;2023-07-28T08:07:56;9.35;;;7.07;;
44536;SDS011;30245;51.966;6.292;2023-07-28T08:10:21;12.82;;;7.75;;
44536;SDS011;30245;51.966;6.292;2023-07-28T08:12:47;10.02;;;8.25;;
44536;SDS011;30245;51.966;6.292;2023-07-28T08:15:13;11.18;;;8.75;;
44536;SDS011;30245;51.966;6.292;2023-07-28T08:17:39;14.85;;;9.63;;
44536;SDS011;30245;51.966;6.292;2023-07-28T08:20:05;11.68;;;8.35;;
44536;SDS011;30245;51.966;6.292;2023-07-28T08:22:32;11.13;;;7.07;;
44536;SDS011;30245;51.966;6.292;2023-07-28T08:24:57;8.20;;;7.22;;
44536;SDS011;30245;51.966;6.292;2023-07-28T08:27:23;11.68;;;8.52;;
44536;SDS011;30245;51.966;6.292;2023-07-28T08:29:49;10.27;;;8.55;;
44536;SDS011;30245;51.966;6.292;2023-07-28T08:32:14;11.77;;;7.40;;
44536;SDS011;30245;51.966;6.292;2023-07-28T08:34:40;8.98;;;6.90;;
44536;SDS011;30245;51.966;6.292;2023-07-28T08:37:06;7.60;;;6.00;;
44536;SDS011;30245;51.966;6.292;2023-07-28T08:39:32;8.45;;;6.32;;
44536;SDS011;30245;51.966;6.292;2023-07-28T08:42:01;7.32;;;6.57;;
44536;SDS011;30245;51.966;6.292;2023-07-28T08:44:34;6.20;;;4.80;;
44536;SDS011;30245;51.966;6.292;2023-07-28T08:47:00;8.63;;;6.30;;
44536;SDS011;30245;51.966;6.292;2023-07-28T08:49:27;8.48;;;6.80;;
44536;SDS011;30245;51.966;6.292;2023-07-28T08:51:56;8.70;;;5.80;;
44536;SDS011;30245;51.966;6.292;2023-07-28T08:54:23;11.80;;;5.78;;
44536;SDS011;30245;51.966;6.292;2023-07-28T08:56:49;7.35;;;6.47;;
44536;SDS011;30245;51.966;6.292;2023-07-28T08:59:28;6.25;;;5.00;;
44536;SDS011;30245;51.966;6.292;2023-07-28T09:01:55;7.05;;;5.18;;
44536;SDS011;30245;51.966;6.292;2023-07-28T09:04:23;5.05;;;4.18;;
44536;SDS011;30245;51.966;6.292;2023-07-28T09:06:49;7.45;;;5.65;;
44536;SDS011;30245;51.966;6.292;2023-07-28T09:09:16;5.50;;;4.88;;
44536;SDS011;30245;51.966;6.292;2023-07-28T09:11:45;8.10;;;5.47;;
44536;SDS011;30245;51.966;6.292;2023-07-28T09:14:14;5.78;;;4.40;;
44536;SDS011;30245;51.966;6.292;2023-07-28T09:19:07;4.78;;;4.38;;
44536;SDS011;30245;51.966;6.292;2023-07-28T09:21:34;8.90;;;6.18;;
44536;SDS011;30245;51.966;6.292;2023-07-28T09:24:00;7.13;;;6.45;;
44536;SDS011;30245;51.966;6.292;2023-07-28T09:31:39;10.57;;;7.85;;
44536;SDS011;30245;51.966;6.292;2023-07-28T09:34:08;11.02;;;7.05;;
44536;SDS011;30245;51.966;6.292;2023-07-28T09:36:35;7.93;;;7.13;;
44536;SDS011;30245;51.966;6.292;2023-07-28T09:39:03;7.15;;;6.45;;
44536;SDS011;30245;51.966;6.292;2023-07-28T09:41:32;8.68;;;5.95;;
44536;SDS011;30245;51.966;6.292;2023-07-28T09:44:03;9.40;;;6.75;;
44536;SDS011;30245;51.966;6.292;2023-07-28T09:46:30;8.53;;;5.83;;
44536;SDS011;30245;51.966;6.292;2023-07-28T09:48:59;11.00;;;7.35;;
44536;SDS011;30245;51.966;6.292;2023-07-28T09:51:34;6.65;;;5.95;;
44536;SDS011;30245;51.966;6.292;2023-07-28T09:56:36;8.05;;;6.38;;
44536;SDS011;30245;51.966;6.292;2023-07-28T09:59:04;7.72;;;6.25;;
44536;SDS011;30245;51.966;6.292;2023-07-28T10:01:36;9.50;;;7.32;;
44536;SDS011;30245;51.966;6.292;2023-07-28T10:04:03;10.02;;;8.10;;
44536;SDS011;30245;51.966;6.292;2023-07-28T10:06:29;12.23;;;9.30;;
44536;SDS011;30245;51.966;6.292;2023-07-28T10:08:58;9.55;;;8.50;;
44536;SDS011;30245;51.966;6.292;2023-07-28T10:11:24;11.68;;;7.53;;
44536;SDS011;30245;51.966;6.292;2023-07-28T10:13:51;8.85;;;8.13;;
44536;SDS011;30245;51.966;6.292;2023-07-28T10:16:20;9.60;;;8.13;;
44536;SDS011;30245;51.966;6.292;2023-07-28T10:18:56;8.40;;;7.60;;
44536;SDS011;30245;51.966;6.292;2023-07-28T10:21:26;9.70;;;8.73;;
44536;SDS011;30245;51.966;6.292;2023-07-28T10:23:54;12.10;;;8.60;;
44536;SDS011;30245;51.966;6.292;2023-07-28T10:26:42;9.65;;;7.45;;
44536;SDS011;30245;51.966;6.292;2023-07-28T10:29:11;8.65;;;7.20;;
44536;SDS011;30245;51.966;6.292;2023-07-28T10:31:50;7.10;;;6.50;;
44536;SDS011;30245;51.966;6.292;2023-07-28T10:34:17;7.75;;;7.05;;
44536;SDS011;30245;51.966;6.292;2023-07-28T10:36:43;10.48;;;8.35;;
44536;SDS011;30245;51.966;6.292;2023-07-28T10:39:14;7.93;;;7.22;;
44536;SDS011;30245;51.966;6.292;2023-07-28T10:44:34;7.63;;;6.93;;
44536;SDS011;30245;51.966;6.292;2023-07-28T10:47:00;8.15;;;7.35;;
44536;SDS011;30245;51.966;6.292;2023-07-28T10:49:26;7.35;;;6.65;;
44536;SDS011;30245;51.966;6.292;2023-07-28T10:51:53;8.32;;;7.47;;
44536;SDS011;30245;51.966;6.292;2023-07-28T10:54:19;7.22;;;5.85;;
44536;SDS011;30245;51.966;6.292;2023-07-28T10:56:46;7.07;;;6.38;;
44536;SDS011;30245;51.966;6.292;2023-07-28T10:59:14;8.60;;;7.70;;
44536;SDS011;30245;51.966;6.292;2023-07-28T11:01:41;8.23;;;7.53;;
44536;SDS011;30245;51.966;6.292;2023-07-28T11:04:14;12.70;;;7.17;;
44536;SDS011;30245;51.966;6.292;2023-07-28T11:06:44;8.27;;;7.57;;
44536;SDS011;30245;51.966;6.292;2023-07-28T11:09:12;11.48;;;8.18;;
44536;SDS011;30245;51.966;6.292;2023-07-28T11:14:06;6.35;;;5.75;;
44536;SDS011;30245;51.966;6.292;2023-07-28T11:16:36;5.05;;;4.57;;
44536;SDS011;30245;51.966;6.292;2023-07-28T11:19:09;4.93;;;4.47;;
44536;SDS011;30245;51.966;6.292;2023-07-28T11:21:37;4.75;;;4.38;;
44536;SDS011;30245;51.966;6.292;2023-07-28T11:24:09;5.10;;;4.72;;
44536;SDS011;30245;51.966;6.292;2023-07-28T11:26:36;4.53;;;4.22;;
44536;SDS011;30245;51.966;6.292;2023-07-28T11:29:03;5.00;;;4.60;;
44536;SDS011;30245;51.966;6.292;2023-07-28T11:31:29;4.63;;;4.32;;
44536;SDS011;30245;51.966;6.292;2023-07-28T11:33:55;4.68;;;4.35;;
44536;SDS011;30245;51.966;6.292;2023-07-28T11:36:21;7.70;;;5.60;;
44536;SDS011;30245;51.966;6.292;2023-07-28T11:38:51;5.57;;;5.10;;
44536;SDS011;30245;51.966;6.292;2023-07-28T11:41:19;4.82;;;3.95;;
44536;SDS011;30245;51.966;6.292;2023-07-28T11:43:47;4.95;;;4.40;;
44536;SDS011;30245;51.966;6.292;2023-07-28T11:51:41;3.60;;;3.30;;
44536;SDS011;30245;51.966;6.292;2023-07-28T11:54:13;4.63;;;3.83;;
44536;SDS011;30245;51.966;6.292;2023-07-28T11:56:41;3.78;;;3.42;;
44536;SDS011;30245;51.966;6.292;2023-07-28T11:59:11;2.30;;;2.10;;
44536;SDS011;30245;51.966;6.292;2023-07-28T12:04:23;2.63;;;2.08;;
44536;SDS011;30245;51.966;6.292;2023-07-28T12:07:10;2.80;;;2.45;;
44536;SDS011;30245;51.966;6.292;2023-07-28T12:12:13;3.83;;;2.50;;
44536;SDS011;30245;51.966;6.292;2023-07-28T12:14:43;3.70;;;3.35;;
44536;SDS011;30245;51.966;6.292;2023-07-28T12:17:15;2.50;;;2.22;;
44536;SDS011;30245;51.966;6.292;2023-07-28T12:20:02;3.67;;;3.38;;
44536;SDS011;30245;51.966;6.292;2023-07-28T12:22:41;4.13;;;3.47;;
44536;SDS011;30245;51.966;6.292;2023-07-28T12:25:07;3.78;;;3.25;;
44536;SDS011;30245;51.966;6.292;2023-07-28T12:27:34;5.40;;;4.30;;
44536;SDS011;30245;51.966;6.292;2023-07-28T12:30:00;4.15;;;3.85;;
44536;SDS011;30245;51.966;6.292;2023-07-28T12:32:26;4.82;;;4.32;;
44536;SDS011;30245;51.966;6.292;2023-07-28T12:34:52;6.40;;;5.78;;
44536;SDS011;30245;51.966;6.292;2023-07-28T12:37:18;5.70;;;4.47;;
44536;SDS011;30245;51.966;6.292;2023-07-28T12:39:44;5.72;;;5.13;;
44536;SDS011;30245;51.966;6.292;2023-07-28T12:42:10;4.75;;;4.35;;
44536;SDS011;30245;51.966;6.292;2023-07-28T12:44:37;4.10;;;3.80;;
44536;SDS011;30245;51.966;6.292;2023-07-28T12:47:04;3.97;;;3.67;;
44536;SDS011;30245;51.966;6.292;2023-07-28T12:49:30;3.53;;;3.22;;
44536;SDS011;30245;51.966;6.292;2023-07-28T12:51:57;4.03;;;3.72;;
44536;SDS011;30245;51.966;6.292;2023-07-28T12:54:24;4.25;;;3.78;;
44536;SDS011;30245;51.966;6.292;2023-07-28T12:56:50;4.07;;;3.67;;
44536;SDS011;30245;51.966;6.292;2023-07-28T12:59:21;3.67;;;3.38;;
44536;SDS011;30245;51.966;6.292;2023-07-28T13:01:47;4.00;;;3.40;;
44536;SDS011;30245;51.966;6.292;2023-07-28T13:04:13;3.53;;;3.22;;
44536;SDS011;30245;51.966;6.292;2023-07-28T13:06:38;5.28;;;3.15;;
44536;SDS011;30245;51.966;6.292;2023-07-28T13:09:06;4.68;;;4.32;;
44536;SDS011;30245;51.966;6.292;2023-07-28T13:11:32;2.70;;;2.00;;
44536;SDS011;30245;51.966;6.292;2023-07-28T13:13:58;2.22;;;2.03;;
44536;SDS011;30245;51.966;6.292;2023-07-28T13:16:24;1.95;;;1.65;;
44536;SDS011;30245;51.966;6.292;2023-07-28T13:18:49;3.08;;;2.05;;
44536;SDS011;30245;51.966;6.292;2023-07-28T13:21:15;1.90;;;1.70;;
44536;SDS011;30245;51.966;6.292;2023-07-28T13:23:41;1.83;;;1.63;;
44536;SDS011;30245;51.966;6.292;2023-07-28T13:26:07;3.17;;;1.80;;
44536;SDS011;30245;51.966;6.292;2023-07-28T13:28:33;1.65;;;1.48;;
44536;SDS011;30245;51.966;6.292;2023-07-28T13:31:00;2.40;;;1.70;;
44536;SDS011;30245;51.966;6.292;2023-07-28T13:33:27;1.25;;;1.05;;
44536;SDS011;30245;51.966;6.292;2023-07-28T13:35:52;1.45;;;1.23;;
44536;SDS011;30245;51.966;6.292;2023-07-28T13:38:18;1.70;;;1.38;;
44536;SDS011;30245;51.966;6.292;2023-07-28T13:40:43;3.55;;;1.73;;
44536;SDS011;30245;51.966;6.292;2023-07-28T13:43:09;1.92;;;1.52;;
44536;SDS011;30245;51.966;6.292;2023-07-28T13:45:34;1.58;;;1.33;;
44536;SDS011;30245;51.966;6.292;2023-07-28T13:48:00;1.90;;;1.58;;
44536;SDS011;30245;51.966;6.292;2023-07-28T13:50:26;3.65;;;2.17;;
44536;SDS011;30245;51.966;6.292;2023-07-28T13:52:51;1.20;;;1.10;;
44536;SDS011;30245;51.966;6.292;2023-07-28T13:55:17;1.60;;;1.48;;
44536;SDS011;30245;51.966;6.292;2023-07-28T13:57:42;1.25;;;1.13;;
44536;SDS011;30245;51.966;6.292;2023-07-28T14:00:08;2.08;;;1.52;;
44536;SDS011;30245;51.966;6.292;2023-07-28T14:02:35;3.95;;;2.75;;
44536;SDS011;30245;51.966;6.292;2023-07-28T14:05:01;1.83;;;1.65;;
44536;SDS011;30245;51.966;6.292;2023-07-28T14:07:27;1.85;;;1.38;;
44536;SDS011;30245;51.966;6.292;2023-07-28T14:09:53;2.03;;;1.77;;
44536;SDS011;30245;51.966;6.292;2023-07-28T14:12:18;1.55;;;1.17;;
44536;SDS011;30245;51.966;6.292;2023-07-28T14:14:44;2.42;;;1.67;;
44536;SDS011;30245;51.966;6.292;2023-07-28T14:17:10;2.40;;;1.75;;
44536;SDS011;30245;51.966;6.292;2023-07-28T14:19:37;2.33;;;2.00;;
44536;SDS011;30245;51.966;6.292;2023-07-28T14:22:03;1.48;;;1.23;;
44536;SDS011;30245;51.966;6.292;2023-07-28T14:24:29;1.95;;;1.30;;
44536;SDS011;30245;51.966;6.292;2023-07-28T14:26:55;1.90;;;1.40;;
44536;SDS011;30245;51.966;6.292;2023-07-28T14:29:20;2.25;;;1.48;;
44536;SDS011;30245;51.966;6.292;2023-07-28T14:31:47;1.60;;;1.40;;
44536;SDS011;30245;51.966;6.292;2023-07-28T14:34:12;1.67;;;1.13;;
44536;SDS011;30245;51.966;6.292;2023-07-28T14:36:38;2.08;;;1.45;;
44536;SDS011;30245;51.966;6.292;2023-07-28T14:39:04;1.92;;;1.75;;
44536;SDS011;30245;51.966;6.292;2023-07-28T14:41:30;2.10;;;1.75;;
44536;SDS011;30245;51.966;6.292;2023-07-28T14:43:55;3.28;;;1.67;;
44536;SDS011;30245;51.966;6.292;2023-07-28T14:46:21;2.47;;;1.50;;
44536;SDS011;30245;51.966;6.292;2023-07-28T14:48:47;2.22;;;2.03;;
44536;SDS011;30245;51.966;6.292;2023-07-28T14:51:15;2.35;;;2.15;;
44536;SDS011;30245;51.966;6.292;2023-07-28T14:53:41;1.70;;;1.55;;
44536;SDS011;30245;51.966;6.292;2023-07-28T14:56:07;4.07;;;2.90;;
44536;SDS011;30245;51.966;6.292;2023-07-28T14:58:33;2.80;;;1.92;;
44536;SDS011;30245;51.966;6.292;2023-07-28T15:00:59;1.98;;;1.50;;
44536;SDS011;30245;51.966;6.292;2023-07-28T15:03:27;4.03;;;1.63;;
44536;SDS011;30245;51.966;6.292;2023-07-28T15:05:54;1.90;;;1.45;;
44536;SDS011;30245;51.966;6.292;2023-07-28T15:08:20;2.40;;;1.50;;
44536;SDS011;30245;51.966;6.292;2023-07-28T15:10:45;5.65;;;1.33;;